Time;durP1;ratioP1;P1;durP2;ratioP2;P2;SDS_P1;SDS_P2;PMS_P1;PMS_P2;Temp;Humidity;BMP_temperature;BMP_pressure;BME280_temperature;BME280_humidity;BME280_pressure;Samples;Min_cycle;Max_cycle;Signal;HPM_P1;HPM_P2
2021/11/22 00:00:12;;;;;;;16.03;11.23;;;7.00;99.90;;;;;;5012416;28;20176;-64
2021/11/22 00:02:38;;;;;;;16.23;12.03;;;6.90;99.90;;;;;;5012343;28;20208;-63
2021/11/22 00:05:04;;;;;;;15.13;11.63;;;6.70;99.90;;;;;;5012223;28;20183;-63
2021/11/22 00:07:29;;;;;;;15.17;11.73;;;6.60;99.90;;;;;;5012343;28;20180;-63
2021/11/22 00:09:55;;;;;;;18.07;11.73;;;6.70;99.90;;;;;;5012250;28;20168;-62
2021/11/22 00:12:21;;;;;;;16.17;11.40;;;6.80;99.90;;;;;;5011778;28;20591;-64
2021/11/22 00:14:47;;;;;;;16.50;12.17;;;6.90;99.90;;;;;;5011784;28;20175;-64
2021/11/22 00:17:12;;;;;;;16.30;11.77;;;7.10;99.90;;;;;;5012076;28;20181;-62
2021/11/22 00:19:38;;;;;;;16.23;11.97;;;7.20;99.90;;;;;;5012068;28;20184;-63
2021/11/22 00:22:04;;;;;;;17.90;11.87;;;7.30;99.90;;;;;;5029973;23;20331;-53
2021/11/22 00:24:30;;;;;;;15.63;12.07;;;7.40;99.90;;;;;;5000408;28;20184;-51
2021/11/22 00:26:56;;;;;;;15.43;11.87;;;7.50;99.90;;;;;;5008072;28;20184;-47
2021/11/22 00:29:22;;;;;;;14.57;11.70;;;7.50;99.90;;;;;;5011584;28;20655;-52
2021/11/22 00:31:49;;;;;;;15.90;12.33;;;7.50;99.90;;;;;;5004451;28;20203;-49
2021/11/22 00:34:15;;;;;;;15.80;11.73;;;7.50;99.90;;;;;;4992133;28;20257;-56
2021/11/22 00:36:41;;;;;;;14.17;11.10;;;7.50;99.90;;;;;;4992029;28;20655;-50
2021/11/22 00:39:07;;;;;;;14.37;11.57;;;7.50;99.90;;;;;;4990349;28;20173;-50
2021/11/22 00:41:32;;;;;;;15.57;11.23;;;7.40;99.90;;;;;;4989416;28;20200;-45
2021/11/22 00:43:58;;;;;;;16.13;12.10;;;7.50;99.90;;;;;;4992171;28;20240;-52
2021/11/22 00:46:27;;;;;;;16.77;12.27;;;7.50;99.90;;;;;;4991623;28;20263;-58
2021/11/22 00:48:53;;;;;;;16.83;11.47;;;7.50;99.90;;;;;;4992394;28;20544;-51
2021/11/22 00:51:19;;;;;;;18.33;12.70;;;7.50;99.90;;;;;;4991869;28;20220;-53
2021/11/22 00:53:44;;;;;;;16.07;12.40;;;7.40;99.90;;;;;;4992245;28;20201;-53
2021/11/22 00:56:10;;;;;;;16.73;12.90;;;7.40;99.90;;;;;;4989885;28;20207;-49
2021/11/22 00:58:36;;;;;;;15.37;12.33;;;7.40;99.90;;;;;;4989854;28;20174;-51
2021/11/22 01:01:02;;;;;;;14.70;11.30;;;7.30;99.90;;;;;;4991865;28;20173;-47
2021/11/22 01:03:27;;;;;;;20.43;12.73;;;7.10;99.90;;;;;;4992043;28;20201;-55
2021/11/22 01:05:53;;;;;;;16.20;11.73;;;6.90;99.90;;;;;;4991662;28;20210;-58
2021/11/22 01:08:19;;;;;;;16.00;12.13;;;6.70;99.90;;;;;;4991839;28;20203;-49
2021/11/22 01:10:45;;;;;;;15.03;11.57;;;6.50;99.90;;;;;;4992167;28;20169;-52
2021/11/22 01:13:12;;;;;;;18.43;11.90;;;6.40;99.90;;;;;;4991746;28;20229;-55
2021/11/22 01:15:38;;;;;;;18.70;11.73;;;6.50;99.90;;;;;;4991959;28;20185;-50
2021/11/22 01:18:04;;;;;;;13.83;10.90;;;6.60;99.90;;;;;;4991715;28;20192;-51
2021/11/22 01:20:31;;;;;;;14.50;10.53;;;6.60;99.90;;;;;;4992050;28;20181;-52
2021/11/22 01:23:08;;;;;;;14.27;11.20;;;6.70;99.90;;;;;;4991934;28;20228;-52
2021/11/22 01:25:35;;;;;;;14.40;11.43;;;6.70;99.90;;;;;;4995375;28;20177;-55
2021/11/22 01:28:01;;;;;;;13.73;10.80;;;6.60;99.90;;;;;;4995237;28;20173;-55
2021/11/22 01:30:27;;;;;;;14.17;11.00;;;6.60;99.90;;;;;;4992747;28;20181;-50
2021/11/22 01:32:53;;;;;;;15.10;11.27;;;6.50;99.90;;;;;;4995373;28;20200;-52
2021/11/22 01:35:19;;;;;;;14.53;11.50;;;6.40;99.90;;;;;;4995223;28;20700;-54
2021/11/22 01:37:46;;;;;;;16.07;11.77;;;6.30;99.90;;;;;;4995475;28;20204;-53
2021/11/22 01:40:14;;;;;;;14.63;11.30;;;6.10;99.90;;;;;;4993879;28;20185;-53
2021/11/22 01:42:41;;;;;;;13.03;11.13;;;6.00;99.90;;;;;;4995282;28;20552;-56
2021/11/22 01:45:09;;;;;;;15.43;11.13;;;6.10;99.90;;;;;;4994817;28;20166;-55
2021/11/22 01:47:36;;;;;;;13.13;10.53;;;6.00;99.90;;;;;;4984238;28;20241;-54
2021/11/22 01:50:04;;;;;;;15.00;11.53;;;6.00;99.90;;;;;;4986092;28;20178;-54
2021/11/22 01:52:29;;;;;;;17.10;12.03;;;5.90;99.90;;;;;;4988460;28;20208;-56
2021/11/22 01:54:55;;;;;;;17.50;12.80;;;5.90;99.90;;;;;;4994359;28;20185;-51
2021/11/22 01:57:21;;;;;;;16.77;12.13;;;5.60;99.90;;;;;;4990780;28;20203;-51
2021/11/22 01:59:47;;;;;;;16.50;12.13;;;5.40;99.90;;;;;;4994736;28;20180;-54
2021/11/22 02:02:13;;;;;;;15.17;11.70;;;5.40;99.90;;;;;;4994725;28;20208;-54
2021/11/22 02:04:39;;;;;;;15.80;12.17;;;5.40;99.90;;;;;;4993202;28;20177;-54
2021/11/22 02:07:05;;;;;;;15.67;11.43;;;5.50;99.90;;;;;;4975044;28;20228;-59
2021/11/22 02:09:32;;;;;;;15.77;11.87;;;5.70;99.90;;;;;;4975425;28;20804;-55
2021/11/22 02:11:58;;;;;;;15.07;11.43;;;5.90;99.90;;;;;;4975193;28;20240;-54
2021/11/22 02:14:24;;;;;;;17.00;11.73;;;6.10;99.90;;;;;;4975314;28;20202;-58
2021/11/22 02:16:49;;;;;;;17.17;12.90;;;6.40;99.90;;;;;;4974732;28;20256;-54
2021/11/22 02:19:15;;;;;;;15.50;11.73;;;6.60;99.90;;;;;;4975301;28;20185;-55
2021/11/22 02:21:43;;;;;;;15.57;11.90;;;6.80;99.90;;;;;;4978182;28;20648;-53
2021/11/22 02:24:09;;;;;;;15.37;11.03;;;6.90;99.90;;;;;;4994401;28;20622;-57
2021/11/22 02:26:36;;;;;;;16.43;12.10;;;7.00;99.90;;;;;;4994054;28;20173;-55
2021/11/22 02:29:03;;;;;;;14.60;10.93;;;7.10;99.90;;;;;;4994431;28;20256;-52
2021/11/22 02:31:28;;;;;;;15.07;12.00;;;7.20;99.90;;;;;;4994612;28;20656;-47
2021/11/22 02:33:55;;;;;;;17.03;11.80;;;7.20;99.90;;;;;;4993705;28;20220;-48
2021/11/22 02:36:21;;;;;;;14.40;11.43;;;6.60;99.90;;;;;;4994105;28;20184;-49
2021/11/22 02:38:47;;;;;;;16.23;11.87;;;7.30;99.90;;;;;;4994087;28;20169;-49
2021/11/22 02:41:15;;;;;;;14.53;11.47;;;7.30;99.90;;;;;;4994389;28;20235;-48
2021/11/22 02:43:44;;;;;;;15.93;12.37;;;7.30;99.90;;;;;;4994083;28;20243;-48
2021/11/22 02:46:11;;;;;;;17.13;12.97;;;7.40;99.90;;;;;;4993926;28;20656;-52
2021/11/22 02:48:37;;;;;;;15.17;11.73;;;7.40;99.90;;;;;;4993968;28;20169;-47
2021/11/22 02:51:05;;;;;;;15.63;12.40;;;7.50;99.90;;;;;;4993937;28;20327;-53
2021/11/22 02:53:32;;;;;;;17.03;12.03;;;7.50;99.90;;;;;;4993898;28;20256;-55
2021/11/22 02:56:03;;;;;;;16.97;12.77;;;7.50;99.90;;;;;;4987739;28;20227;-48
2021/11/22 02:58:29;;;;;;;14.90;11.97;;;7.50;99.90;;;;;;4993821;28;20177;-53
2021/11/22 03:00:55;;;;;;;16.93;12.57;;;7.50;99.90;;;;;;4993616;28;20223;-54
2021/11/22 03:03:27;;;;;;;16.30;12.40;;;7.50;99.90;;;;;;4993797;28;20208;-55
2021/11/22 03:06:05;;;;;;;16.57;12.50;;;7.50;99.90;;;;;;4993245;28;20165;-50
2021/11/22 03:08:31;;;;;;;15.37;11.87;;;7.50;99.90;;;;;;4993857;28;20169;-48
2021/11/22 03:10:57;;;;;;;15.90;11.87;;;7.60;99.90;;;;;;4993621;28;20220;-53
2021/11/22 03:13:23;;;;;;;17.00;12.87;;;7.70;99.90;;;;;;4993629;28;20829;-48
2021/11/22 03:15:49;;;;;;;16.53;12.80;;;7.60;99.90;;;;;;4993119;28;20591;-47
2021/11/22 03:18:15;;;;;;;16.87;12.57;;;7.60;99.90;;;;;;4992732;28;20177;-48
2021/11/22 03:20:40;;;;;;;20.67;13.90;;;7.60;99.90;;;;;;4993008;28;20179;-51
2021/11/22 03:23:06;;;;;;;16.50;12.33;;;7.50;99.90;;;;;;4993215;28;20220;-47
2021/11/22 03:25:31;;;;;;;16.07;12.43;;;7.40;99.90;;;;;;4992883;28;20180;-48
2021/11/22 03:27:57;;;;;;;15.67;11.87;;;7.40;99.90;;;;;;4984147;28;20261;-48
2021/11/22 03:30:23;;;;;;;15.87;11.70;;;7.30;99.90;;;;;;4986605;28;20192;-51
2021/11/22 03:32:49;;;;;;;16.47;12.77;;;6.80;99.90;;;;;;4991036;28;20244;-52
2021/11/22 03:35:15;;;;;;;18.67;13.13;;;6.40;99.90;;;;;;4992759;28;20177;-49
2021/11/22 03:37:41;;;;;;;18.57;12.70;;;6.10;99.90;;;;;;4985323;28;20661;-51
2021/11/22 03:40:09;;;;;;;16.50;12.00;;;6.10;99.90;;;;;;4993090;28;20188;-50
2021/11/22 03:42:52;;;;;;;15.70;12.13;;;6.30;99.90;;;;;;4992768;28;20200;-51
2021/11/22 03:45:18;;;;;;;15.83;12.00;;;6.50;99.90;;;;;;4989186;28;20172;-50
2021/11/22 03:47:43;;;;;;;14.27;11.00;;;6.70;99.90;;;;;;4992203;28;20177;-52
2021/11/22 03:50:09;;;;;;;15.57;11.83;;;6.90;99.90;;;;;;4993003;28;20207;-50
2021/11/22 03:52:35;;;;;;;15.50;11.13;;;7.00;99.90;;;;;;4992746;28;20203;-51
2021/11/22 03:55:00;;;;;;;14.73;11.23;;;7.10;99.90;;;;;;4992644;28;20185;-52
2021/11/22 03:57:27;;;;;;;16.63;11.63;;;7.20;99.90;;;;;;4992706;28;20180;-53
2021/11/22 03:59:55;;;;;;;16.07;12.27;;;7.30;99.90;;;;;;4992741;28;20192;-52
2021/11/22 04:02:21;;;;;;;14.80;11.17;;;7.30;99.90;;;;;;4990200;28;20220;-53
2021/11/22 04:04:47;;;;;;;15.33;11.37;;;7.30;99.90;;;;;;4992173;28;20228;-50
2021/11/22 04:07:12;;;;;;;14.20;11.20;;;7.40;99.90;;;;;;4992602;28;20177;-52
2021/11/22 04:09:38;;;;;;;13.73;10.93;;;7.50;99.90;;;;;;4992640;28;20177;-59
2021/11/22 04:12:04;;;;;;;17.57;11.77;;;7.50;99.90;;;;;;4992643;28;20251;-57
2021/11/22 04:14:29;;;;;;;16.47;12.07;;;7.60;99.90;;;;;;4992310;28;20261;-53
2021/11/22 04:16:55;;;;;;;18.37;12.07;;;7.60;99.90;;;;;;4992374;28;20187;-50
2021/11/22 04:19:20;;;;;;;17.20;12.17;;;7.50;99.90;;;;;;4992447;28;20209;-50
2021/11/22 04:21:46;;;;;;;17.73;12.27;;;7.60;99.90;;;;;;4992292;28;20245;-56
2021/11/22 04:24:12;;;;;;;16.87;11.83;;;7.40;99.90;;;;;;4992100;28;20213;-53
2021/11/22 04:26:37;;;;;;;16.27;12.17;;;7.40;99.90;;;;;;4992002;28;20169;-52
2021/11/22 04:29:03;;;;;;;19.37;12.13;;;7.30;99.90;;;;;;4992374;28;20192;-53
2021/11/22 04:31:29;;;;;;;16.53;12.43;;;7.40;99.90;;;;;;4992161;28;20619;-57
2021/11/22 04:33:54;;;;;;;15.70;12.23;;;7.40;99.90;;;;;;4992076;28;20188;-50
2021/11/22 04:36:20;;;;;;;17.87;11.83;;;7.40;99.90;;;;;;4990696;28;20189;-52
2021/11/22 04:38:46;;;;;;;16.83;12.93;;;7.40;99.90;;;;;;4992156;28;20181;-50
2021/11/22 04:41:11;;;;;;;17.23;12.30;;;7.30;99.90;;;;;;4992026;28;20184;-51
2021/11/22 04:43:37;;;;;;;15.93;12.23;;;7.30;99.90;;;;;;4992283;28;20200;-49
2021/11/22 04:46:02;;;;;;;15.63;11.50;;;7.20;99.90;;;;;;4991829;28;20228;-47
2021/11/22 04:48:28;;;;;;;17.27;12.27;;;7.20;99.90;;;;;;4992276;28;20201;-59
2021/11/22 04:50:54;;;;;;;16.13;12.40;;;7.20;99.90;;;;;;4992052;28;20260;-51
2021/11/22 04:53:19;;;;;;;16.17;12.33;;;7.30;99.90;;;;;;4992259;28;20621;-49
2021/11/22 04:55:45;;;;;;;17.40;12.43;;;7.30;99.90;;;;;;4991871;28;20173;-59
2021/11/22 04:58:11;;;;;;;16.10;12.33;;;7.50;99.90;;;;;;4994451;28;20264;-57
2021/11/22 05:00:37;;;;;;;16.10;12.23;;;7.60;99.90;;;;;;4996223;28;20181;-49
2021/11/22 05:03:04;;;;;;;15.57;12.07;;;7.60;99.90;;;;;;4986222;28;20206;-49
2021/11/22 05:05:30;;;;;;;17.33;12.53;;;7.60;99.90;;;;;;4987254;28;20208;-52
2021/11/22 05:07:55;;;;;;;17.93;12.77;;;7.70;99.90;;;;;;4991324;28;20211;-52
2021/11/22 05:10:23;;;;;;;16.53;11.97;;;7.70;99.90;;;;;;4994392;28;20580;-50
2021/11/22 05:12:48;;;;;;;17.63;12.83;;;7.70;99.90;;;;;;4995013;28;20197;-50
2021/11/22 05:15:14;;;;;;;16.37;13.00;;;7.70;99.90;;;;;;4995463;28;20188;-49
2021/11/22 05:17:41;;;;;;;17.10;12.37;;;7.70;99.90;;;;;;4995481;28;20252;-56
2021/11/22 05:20:07;;;;;;;16.17;12.33;;;7.70;99.90;;;;;;4989870;28;20185;-50
2021/11/22 05:22:33;;;;;;;17.47;12.60;;;7.60;99.90;;;;;;4994618;28;20243;-51
2021/11/22 05:25:01;;;;;;;19.13;13.27;;;7.60;99.90;;;;;;4995073;28;20177;-50
2021/11/22 05:27:29;;;;;;;15.97;12.13;;;7.50;99.90;;;;;;4995605;28;20169;-51
2021/11/22 05:29:56;;;;;;;16.00;12.53;;;7.50;99.90;;;;;;4995255;28;20177;-55
2021/11/22 05:32:22;;;;;;;14.97;11.70;;;7.40;99.90;;;;;;4995457;28;20205;-51
2021/11/22 05:34:50;;;;;;;17.37;12.27;;;7.50;99.90;;;;;;4995082;28;20182;-49
2021/11/22 05:37:16;;;;;;;16.03;12.40;;;7.40;99.90;;;;;;4990287;28;20210;-49
2021/11/22 05:39:42;;;;;;;16.33;11.87;;;7.40;99.90;;;;;;4995067;28;20188;-52
2021/11/22 05:42:08;;;;;;;16.67;11.83;;;7.40;99.90;;;;;;4995013;28;20720;-52
2021/11/22 05:44:35;;;;;;;16.23;12.03;;;7.40;99.90;;;;;;4994043;28;20181;-52
2021/11/22 05:47:11;;;;;;;18.17;13.27;;;7.30;99.90;;;;;;4995247;28;20188;-55
2021/11/22 05:49:37;;;;;;;17.53;12.10;;;7.30;99.90;;;;;;4994847;28;20591;-51
2021/11/22 05:52:05;;;;;;;15.27;12.13;;;7.30;99.90;;;;;;4993952;28;20205;-51
2021/11/22 05:54:32;;;;;;;14.20;11.23;;;7.40;99.90;;;;;;4994891;28;20173;-59
2021/11/22 05:56:59;;;;;;;16.53;12.53;;;7.40;99.90;;;;;;4994728;28;20632;-50
2021/11/22 05:59:25;;;;;;;16.17;11.97;;;7.40;99.90;;;;;;4995109;28;20177;-56
2021/11/22 06:01:51;;;;;;;16.67;12.30;;;7.50;99.90;;;;;;4994741;28;20200;-55
2021/11/22 06:04:17;;;;;;;15.83;11.80;;;7.60;99.90;;;;;;4995098;28;20271;-51
2021/11/22 06:06:42;;;;;;;16.63;11.83;;;7.70;99.90;;;;;;4994377;28;20220;-49
2021/11/22 06:09:08;;;;;;;15.70;11.60;;;7.80;99.90;;;;;;4993941;28;20170;-51
2021/11/22 06:11:34;;;;;;;15.57;12.27;;;7.80;99.90;;;;;;4990603;28;20197;-52
2021/11/22 06:13:59;;;;;;;15.60;12.07;;;7.80;99.90;;;;;;4994807;28;20192;-50
2021/11/22 06:16:25;;;;;;;14.83;11.33;;;7.80;99.90;;;;;;4994349;28;20268;-54
2021/11/22 06:18:50;;;;;;;14.70;11.27;;;7.80;99.90;;;;;;4994982;28;20272;-52
2021/11/22 06:21:16;;;;;;;15.37;12.60;;;7.90;99.90;;;;;;4994428;28;20177;-55
2021/11/22 06:23:41;;;;;;;14.20;11.13;;;7.90;99.90;;;;;;5016644;23;20232;-57
2021/11/22 06:26:07;;;;;;;17.23;12.43;;;7.90;99.90;;;;;;4993714;28;20264;-51
2021/11/22 06:28:33;;;;;;;15.20;11.47;;;7.90;99.90;;;;;;4993918;28;20512;-53
2021/11/22 06:30:59;;;;;;;15.40;12.50;;;7.90;99.90;;;;;;4993937;28;20219;-55
2021/11/22 06:33:25;;;;;;;15.70;12.67;;;7.90;99.90;;;;;;4990087;28;20284;-57
2021/11/22 06:35:50;;;;;;;14.97;12.27;;;8.00;99.90;;;;;;4974262;28;20905;-56
2021/11/22 06:38:17;;;;;;;15.50;11.23;;;8.00;99.90;;;;;;4973233;28;20186;-52
2021/11/22 06:40:42;;;;;;;14.30;11.07;;;8.00;99.90;;;;;;4975030;28;20214;-51
2021/11/22 06:43:08;;;;;;;14.20;10.87;;;8.00;99.90;;;;;;4974143;28;20300;-53
2021/11/22 06:45:34;;;;;;;13.27;10.67;;;8.00;99.90;;;;;;4971277;28;20196;-53
2021/11/22 06:48:00;;;;;;;14.13;10.83;;;8.00;99.90;;;;;;4973268;28;20210;-57
2021/11/22 06:50:26;;;;;;;16.57;11.10;;;8.00;99.90;;;;;;4974488;28;20252;-53
2021/11/22 06:52:52;;;;;;;13.87;10.87;;;8.00;99.90;;;;;;4973409;28;20658;-53
2021/11/22 06:55:19;;;;;;;14.37;11.33;;;8.00;99.90;;;;;;4973702;28;20197;-54
2021/11/22 06:57:45;;;;;;;13.40;10.63;;;8.00;99.90;;;;;;4974608;28;20170;-58
2021/11/22 07:00:13;;;;;;;15.83;11.37;;;8.00;99.90;;;;;;4973357;28;20181;-55
2021/11/22 07:02:39;;;;;;;15.17;11.47;;;7.90;99.90;;;;;;4973014;28;20630;-58
2021/11/22 07:05:06;;;;;;;16.60;12.10;;;7.80;99.90;;;;;;4973919;28;20217;-60
2021/11/22 07:07:32;;;;;;;14.60;12.00;;;7.90;99.90;;;;;;4970103;28;20269;-52
2021/11/22 07:09:58;;;;;;;14.63;11.33;;;7.90;99.90;;;;;;4972815;28;20190;-57
2021/11/22 07:12:23;;;;;;;13.97;11.40;;;7.90;99.90;;;;;;4973792;28;20184;-56
2021/11/22 07:14:49;;;;;;;17.37;13.10;;;7.90;99.90;;;;;;4973045;28;20194;-54
2021/11/22 07:17:15;;;;;;;16.43;12.30;;;8.00;99.90;;;;;;4973810;28;20170;-52
2021/11/22 07:19:42;;;;;;;15.70;12.30;;;8.00;99.90;;;;;;4973848;28;20166;-53
2021/11/22 07:22:09;;;;;;;18.73;12.40;;;8.10;99.90;;;;;;4973715;28;20180;-52
2021/11/22 07:24:38;;;;;;;14.23;11.70;;;8.10;99.90;;;;;;4973490;28;20580;-54
2021/11/22 07:27:04;;;;;;;15.93;12.40;;;8.20;99.90;;;;;;4971089;28;20228;-51
2021/11/22 07:29:29;;;;;;;17.43;11.87;;;8.10;99.90;;;;;;4972877;28;20581;-53
2021/11/22 07:31:55;;;;;;;15.23;11.97;;;8.20;99.90;;;;;;4974084;28;20173;-52
2021/11/22 07:34:21;;;;;;;18.57;14.10;;;8.20;99.90;;;;;;4973168;28;20217;-57
2021/11/22 07:36:46;;;;;;;17.37;12.97;;;8.30;99.90;;;;;;4973255;28;20668;-52
2021/11/22 07:39:12;;;;;;;14.83;11.83;;;8.30;99.90;;;;;;4973488;28;20178;-51
2021/11/22 07:41:39;;;;;;;15.20;12.37;;;8.30;99.90;;;;;;4973575;28;20647;-49
2021/11/22 07:44:05;;;;;;;15.17;11.60;;;8.30;99.90;;;;;;4973441;28;20205;-53
2021/11/22 07:46:31;;;;;;;15.73;12.20;;;8.20;99.90;;;;;;4972889;28;20193;-56
2021/11/22 07:48:56;;;;;;;15.63;12.47;;;8.40;99.90;;;;;;4970155;28;20755;-52
2021/11/22 07:51:23;;;;;;;16.40;12.70;;;8.30;99.90;;;;;;4973377;28;20173;-55
2021/11/22 07:53:49;;;;;;;16.77;12.50;;;8.50;99.90;;;;;;4978688;28;20702;-52
2021/11/22 07:56:15;;;;;;;17.10;12.97;;;8.30;99.90;;;;;;4973642;28;20177;-57
2021/11/22 07:58:41;;;;;;;17.13;13.20;;;8.30;99.90;;;;;;4973297;28;20173;-56
2021/11/22 08:01:06;;;;;;;17.87;12.73;;;8.40;99.90;;;;;;4984774;28;20656;-54
2021/11/22 08:03:33;;;;;;;17.60;13.23;;;8.40;99.90;;;;;;4988552;28;20216;-53
2021/11/22 08:05:59;;;;;;;16.90;12.97;;;8.40;99.90;;;;;;4992445;28;20169;-57
2021/11/22 08:08:27;;;;;;;19.07;14.37;;;8.40;99.90;;;;;;4992432;28;20261;-55
2021/11/22 08:11:06;;;;;;;17.57;13.90;;;8.50;99.90;;;;;;4993130;28;20688;-55
2021/11/22 08:13:32;;;;;;;20.30;13.80;;;8.50;99.90;;;;;;4992428;28;20231;-56
2021/11/22 08:16:02;;;;;;;19.03;13.10;;;8.60;99.90;;;;;;4991953;28;20173;-57
2021/11/22 08:18:28;;;;;;;17.00;12.90;;;8.60;99.90;;;;;;4972468;28;20173;-56
2021/11/22 08:20:55;;;;;;;18.77;13.40;;;8.70;99.90;;;;;;4972491;28;20274;-55
2021/11/22 08:23:21;;;;;;;18.17;13.40;;;8.60;99.90;;;;;;4972067;28;20268;-53
2021/11/22 08:25:46;;;;;;;17.37;12.73;;;8.50;99.90;;;;;;4972288;28;20308;-53
2021/11/22 08:28:12;;;;;;;17.40;13.33;;;8.50;99.90;;;;;;4972409;28;20223;-51
2021/11/22 08:30:38;;;;;;;19.20;13.47;;;8.50;99.90;;;;;;4971946;28;20262;-55
2021/11/22 08:33:04;;;;;;;18.03;13.40;;;8.50;99.90;;;;;;4971093;28;20174;-55
2021/11/22 08:35:33;;;;;;;16.17;12.77;;;8.50;99.90;;;;;;4970394;28;20170;-51
2021/11/22 08:38:00;;;;;;;16.07;12.57;;;8.60;99.90;;;;;;4966718;28;20170;-54
2021/11/22 08:40:26;;;;;;;14.90;12.07;;;8.70;99.90;;;;;;4969589;28;20188;-54
2021/11/22 08:42:54;;;;;;;16.13;12.97;;;8.80;99.90;;;;;;4970297;28;20601;-57
2021/11/22 08:45:21;;;;;;;15.13;12.60;;;8.90;99.90;;;;;;4969728;28;20641;-54
2021/11/22 08:47:47;;;;;;;16.50;12.47;;;8.90;99.90;;;;;;4971845;28;20181;-57
2021/11/22 08:50:14;;;;;;;15.93;12.53;;;9.00;99.90;;;;;;4972973;28;20641;-51
2021/11/22 08:52:41;;;;;;;16.03;13.30;;;9.10;99.90;;;;;;4972806;28;20174;-56
2021/11/22 08:55:08;;;;;;;15.77;12.70;;;9.10;99.90;;;;;;4971156;28;20280;-54
2021/11/22 08:57:35;;;;;;;16.00;13.00;;;9.10;99.90;;;;;;4973042;28;20713;-58
2021/11/22 09:00:06;;;;;;;18.03;13.03;;;9.10;99.90;;;;;;4972918;28;20180;-57
2021/11/22 09:02:32;;;;;;;15.13;12.03;;;9.20;99.90;;;;;;4972666;28;20201;-57
2021/11/22 09:04:57;;;;;;;16.80;12.77;;;9.20;99.90;;;;;;4972390;28;20273;-58
2021/11/22 09:07:23;;;;;;;15.50;11.70;;;9.20;99.90;;;;;;4968350;28;20851;-57
2021/11/22 09:09:49;;;;;;;15.10;12.00;;;9.20;99.90;;;;;;4970546;28;20208;-59
2021/11/22 09:12:14;;;;;;;16.27;12.77;;;10.50;99.90;;;;;;4972979;28;20743;-58
2021/11/22 09:14:40;;;;;;;15.27;11.87;;;9.30;99.90;;;;;;4972307;28;20192;-58
2021/11/22 09:17:06;;;;;;;16.03;12.00;;;10.70;99.90;;;;;;4972510;28;20201;-59
2021/11/22 09:19:31;;;;;;;14.80;11.77;;;9.30;99.90;;;;;;4972530;28;20192;-60
2021/11/22 09:21:57;;;;;;;15.43;12.27;;;9.30;99.90;;;;;;4972826;28;20874;-55
2021/11/22 09:24:23;;;;;;;14.87;11.93;;;9.60;99.90;;;;;;4972154;28;20259;-56
2021/11/22 09:26:48;;;;;;;14.80;11.97;;;10.30;99.90;;;;;;4971243;28;20181;-54
2021/11/22 09:29:14;;;;;;;13.43;10.50;;;9.40;99.90;;;;;;4972595;28;20174;-58
2021/11/22 09:31:40;;;;;;;14.53;11.23;;;9.10;99.90;;;;;;4972592;28;20205;-57
2021/11/22 09:34:06;;;;;;;13.00;10.37;;;10.20;99.90;;;;;;4972536;28;20205;-58
2021/11/22 09:36:31;;;;;;;12.87;10.30;;;8.90;99.90;;;;;;4972126;28;20177;-56
2021/11/22 09:38:57;;;;;;;13.40;10.47;;;8.90;99.90;;;;;;4971179;28;20182;-58
2021/11/22 09:41:27;;;;;;;13.17;10.60;;;10.10;99.90;;;;;;4972454;28;20545;-56
2021/11/22 09:43:54;;;;;;;13.07;10.43;;;8.90;99.90;;;;;;4972799;28;20202;-58
2021/11/22 09:46:19;;;;;;;12.40;10.73;;;9.80;99.90;;;;;;4975646;28;20173;-58
2021/11/22 09:48:45;;;;;;;12.40;9.80;;;9.10;99.90;;;;;;4974930;28;20180;-56
2021/11/22 09:51:11;;;;;;;14.97;11.23;;;9.20;99.90;;;;;;4975642;28;20177;-54
2021/11/22 09:53:40;;;;;;;12.83;10.47;;;10.00;99.90;;;;;;4975597;28;20665;-56
2021/11/22 09:56:06;;;;;;;12.97;10.10;;;9.40;99.90;;;;;;4974213;28;20668;-56
2021/11/22 09:58:32;;;;;;;12.30;10.07;;;9.40;99.90;;;;;;4975469;28;20253;-53
2021/11/22 10:01:14;;;;;;;13.47;10.27;;;10.60;99.90;;;;;;4975649;28;20208;-53
2021/11/22 10:03:41;;;;;;;13.80;10.67;;;10.80;99.90;;;;;;4975390;28;20229;-55
2021/11/22 10:06:07;;;;;;;12.97;10.03;;;10.70;99.90;;;;;;4975102;28;20174;-55
2021/11/22 10:08:41;;;;;;;11.27;9.53;;;9.60;99.90;;;;;;4974576;28;20301;-56
2021/11/22 10:11:09;;;;;;;11.73;10.17;;;9.60;99.90;;;;;;4975478;28;20173;-51
2021/11/22 10:13:38;;;;;;;13.20;11.10;;;9.70;99.90;;;;;;4975285;28;20213;-55
2021/11/22 10:16:15;;;;;;;13.67;10.47;;;9.70;99.90;;;;;;4975127;28;20289;-57
2021/11/22 10:18:46;;;;;;;11.97;10.30;;;9.60;99.90;;;;;;4975152;28;20181;-53
2021/11/22 10:21:18;;;;;;;13.67;9.77;;;9.50;99.90;;;;;;4975349;28;20181;-54
2021/11/22 10:23:46;;;;;;;14.03;9.97;;;9.30;99.90;;;;;;4975067;28;20289;-57
2021/11/22 10:26:15;;;;;;;11.70;10.13;;;9.00;99.90;;;;;;4974808;28;20885;-55
2021/11/22 10:28:44;;;;;;;12.23;10.03;;;9.00;99.90;;;;;;4970811;28;20178;-56
2021/11/22 10:31:13;;;;;;;11.80;9.80;;;9.00;99.90;;;;;;4974371;28;20178;-60
2021/11/22 10:33:40;;;;;;;12.37;10.17;;;9.20;99.90;;;;;;4975029;28;20196;-56
2021/11/22 10:36:10;;;;;;;11.37;9.27;;;9.30;99.90;;;;;;4974664;28;20178;-56
2021/11/22 10:38:42;;;;;;;11.07;9.23;;;9.30;99.90;;;;;;4975034;28;20224;-56
2021/11/22 10:41:15;;;;;;;10.83;9.00;;;9.40;99.90;;;;;;4974742;28;20181;-52
2021/11/22 10:43:52;;;;;;;12.50;9.50;;;9.30;99.90;;;;;;4974818;28;20205;-53
2021/11/22 10:46:43;;;;;;;10.67;8.50;;;9.30;99.90;;;;;;4974485;28;20228;-52
2021/11/22 10:49:28;;;;;;;10.63;9.23;;;9.50;99.90;;;;;;4973768;28;20687;-57
2021/11/22 10:52:25;;;;;;;9.50;7.90;;;9.60;99.90;;;;;;4974498;28;20184;-55
2021/11/22 10:54:55;;;;;;;9.73;8.10;;;9.70;99.90;;;;;;4973984;28;20213;-55
2021/11/22 10:57:21;;;;;;;9.83;8.17;;;9.80;99.90;;;;;;4974837;28;20236;-55
2021/11/22 10:59:47;;;;;;;10.43;9.00;;;9.80;99.90;;;;;;4974636;28;20200;-55
2021/11/22 11:02:12;;;;;;;10.47;8.37;;;9.80;99.90;;;;;;4974309;28;20174;-54
2021/11/22 11:04:43;;;;;;;35.07;15.23;;;9.70;99.90;;;;;;4974139;28;20190;-55
2021/11/22 11:07:10;;;;;;;15.47;11.23;;;9.90;99.90;;;;;;4973489;28;20177;-56
2021/11/22 11:09:38;;;;;;;10.80;8.70;;;9.90;99.90;;;;;;4974473;28;20189;-55
2021/11/22 11:12:09;;;;;;;12.33;9.33;;;9.80;99.90;;;;;;4974517;28;20170;-53
2021/11/22 11:14:37;;;;;;;46.83;21.17;;;9.60;99.90;;;;;;4974106;28;20359;-58
2021/11/22 11:17:36;;;;;;;13.90;10.40;;;9.60;99.90;;;;;;4974015;28;20595;-57
2021/11/22 11:20:10;;;;;;;12.47;9.60;;;9.50;99.90;;;;;;4974200;28;20600;-56
2021/11/22 11:22:36;;;;;;;12.33;9.20;;;9.70;99.90;;;;;;4974149;28;20202;-53
2021/11/22 11:25:04;;;;;;;11.73;8.93;;;9.90;99.90;;;;;;4973439;28;20206;-57
2021/11/22 11:27:31;;;;;;;18.77;12.17;;;10.00;99.90;;;;;;4974015;28;20179;-56
2021/11/22 11:29:58;;;;;;;15.23;10.77;;;10.10;99.90;;;;;;4973911;28;20170;-56
2021/11/22 11:32:25;;;;;;;11.73;9.93;;;10.20;99.90;;;;;;4973920;28;20170;-53
2021/11/22 11:34:52;;;;;;;11.87;8.23;;;10.20;99.90;;;;;;4973604;28;20224;-55
2021/11/22 11:37:38;;;;;;;10.00;8.20;;;10.10;99.90;;;;;;4971416;28;20618;-58
2021/11/22 11:40:34;;;;;;;10.70;8.63;;;10.00;99.90;;;;;;4953262;28;20185;-59
2021/11/22 11:43:18;;;;;;;11.30;8.20;;;10.10;99.90;;;;;;4973417;28;20290;-58
2021/11/22 11:46:02;;;;;;;9.90;7.33;;;10.00;99.90;;;;;;4973524;28;20173;-59
2021/11/22 11:48:36;;;;;;;7.77;6.97;;;10.00;99.90;;;;;;4973709;28;20166;-58
2021/11/22 11:51:17;;;;;;;9.43;7.43;;;10.00;99.90;;;;;;4973673;28;20166;-55
2021/11/22 11:54:04;;;;;;;9.10;7.50;;;10.10;99.90;;;;;;4973575;28;20220;-58
2021/11/22 11:56:32;;;;;;;9.77;8.03;;;10.20;99.90;;;;;;4972066;28;20177;-54
2021/11/22 11:59:22;;;;;;;11.27;9.53;;;10.30;99.90;;;;;;4973263;28;20181;-55
2021/11/22 12:02:01;;;;;;;10.37;8.80;;;10.20;99.90;;;;;;4973484;28;20528;-57
2021/11/22 12:04:49;;;;;;;10.80;8.20;;;10.10;99.90;;;;;;4973161;28;20216;-55
2021/11/22 12:07:33;;;;;;;9.17;8.13;;;10.10;99.90;;;;;;4972003;28;20665;-58
2021/11/22 12:10:12;;;;;;;10.17;8.20;;;10.30;99.90;;;;;;4968890;28;20221;-59
2021/11/22 12:12:52;;;;;;;9.10;8.13;;;10.50;99.90;;;;;;4973334;28;20656;-51
2021/11/22 12:15:24;;;;;;;8.90;7.57;;;10.60;99.90;;;;;;4972832;28;20280;-58
2021/11/22 12:17:54;;;;;;;8.73;7.60;;;10.70;99.90;;;;;;4973313;28;20657;-58
2021/11/22 12:20:26;;;;;;;8.60;7.37;;;10.70;99.90;;;;;;4973106;28;20553;-60
2021/11/22 12:26:01;;;;;;;10.13;8.23;;;10.30;99.90;;;;;;5034215;23;20238;-66
2021/11/22 12:28:29;;;;;;;8.77;7.37;;;10.10;99.90;;;;;;5005842;28;20169;-66
2021/11/22 12:31:14;;;;;;;8.33;6.83;;;10.10;99.90;;;;;;5011855;28;20168;-66
2021/11/22 12:33:45;;;;;;;8.30;6.90;;;10.10;99.90;;;;;;5009689;28;20207;-66
2021/11/22 12:36:10;;;;;;;8.00;6.87;;;10.20;99.90;;;;;;4991754;28;20183;-66
2021/11/22 12:38:46;;;;;;;7.60;6.37;;;10.40;99.90;;;;;;4992136;28;20640;-65
2021/11/22 12:41:20;;;;;;;7.57;6.40;;;10.60;99.90;;;;;;4989971;28;20188;-64
2021/11/22 12:43:51;;;;;;;7.33;6.40;;;10.60;99.90;;;;;;4991177;28;20577;-65